createdAt,value
2023-05-17T00:00:47.327Z,99.30
2023-05-17T00:03:16.740Z,99.10
2023-05-17T00:05:46.331Z,99.10
2023-05-17T00:08:15.697Z,99.10
2023-05-17T00:10:44.999Z,99.10
2023-05-17T00:13:14.345Z,98.90
2023-05-17T00:15:43.740Z,98.90
2023-05-17T00:18:14.950Z,98.90
2023-05-17T00:20:44.457Z,98.70
2023-05-17T00:23:13.792Z,98.20
2023-05-17T00:25:43.294Z,98.50
2023-05-17T00:28:12.714Z,98.50
2023-05-17T00:30:42.109Z,98.50
2023-05-17T00:33:11.607Z,98.10
2023-05-17T00:35:41.945Z,97.90
2023-05-17T00:38:11.599Z,97.90
2023-05-17T00:40:40.978Z,97.90
2023-05-17T00:43:10.425Z,98.00
2023-05-17T00:45:39.824Z,97.70
2023-05-17T00:48:09.299Z,97.50
2023-05-17T00:50:39.100Z,97.50
2023-05-17T00:53:09.068Z,96.80
2023-05-17T00:55:38.685Z,96.70
2023-05-17T00:58:08.022Z,96.60
2023-05-17T01:00:37.600Z,96.50
2023-05-17T01:03:07.407Z,96.30
2023-05-17T01:05:37.421Z,96.40
2023-05-17T01:08:06.992Z,96.30
2023-05-17T01:11:06.512Z,96.30
2023-05-17T01:14:03.804Z,96.30
2023-05-17T01:16:53.419Z,95.70
2023-05-17T01:19:47.406Z,95.90
2023-05-17T01:22:45.547Z,95.80
2023-05-17T01:25:33.161Z,95.40
2023-05-17T01:28:06.551Z,95.50
2023-05-17T01:30:37.970Z,95.40
2023-05-17T01:33:10.987Z,95.50
2023-05-17T01:35:41.136Z,95.60
2023-05-17T01:38:10.764Z,95.70
2023-05-17T01:40:57.069Z,95.30
2023-05-17T01:44:14.070Z,94.50
2023-05-17T01:46:45.184Z,94.90
2023-05-17T01:49:26.084Z,94.90
2023-05-17T01:52:29.697Z,94.70
2023-05-17T01:55:44.191Z,94.70
2023-05-17T01:58:14.981Z,94.50
2023-05-17T02:00:48.937Z,94.00
2023-05-17T02:03:22.345Z,94.30
2023-05-17T02:05:51.960Z,93.80
2023-05-17T02:08:23.031Z,93.70
2023-05-17T02:10:52.437Z,93.70
2023-05-17T02:13:23.286Z,93.70
2023-05-17T02:15:52.945Z,93.50
2023-05-17T02:18:28.896Z,93.40
2023-05-17T02:20:58.338Z,92.90
2023-05-17T02:23:27.792Z,93.10
2023-05-17T02:25:58.356Z,92.80
2023-05-17T02:28:29.294Z,92.60
2023-05-17T02:31:00.887Z,92.20
2023-05-17T02:34:14.349Z,92.40
2023-05-17T02:36:49.607Z,92.60
2023-05-17T02:39:25.766Z,92.40
2023-05-17T02:41:58.693Z,92.10
2023-05-17T02:44:28.032Z,91.50
2023-05-17T02:47:00.256Z,91.90
2023-05-17T02:49:29.843Z,91.60
2023-05-17T02:51:59.335Z,91.70
2023-05-17T02:54:28.793Z,91.40
2023-05-17T02:57:01.428Z,91.20
2023-05-17T02:59:30.762Z,91.40
2023-05-17T03:02:00.200Z,91.30
2023-05-17T03:04:29.999Z,91.00
2023-05-17T03:06:59.349Z,90.50
2023-05-17T03:09:30.913Z,90.30
2023-05-17T03:12:00.209Z,90.50
2023-05-17T03:14:29.538Z,91.10
2023-05-17T03:16:58.729Z,90.90
2023-05-17T03:19:28.574Z,90.80
2023-05-17T03:21:57.877Z,92.20
2023-05-17T03:24:27.250Z,91.10
2023-05-17T03:26:56.497Z,90.50
2023-05-17T03:29:25.874Z,90.50
2023-05-17T03:31:55.630Z,90.80
2023-05-17T03:34:25.285Z,89.70
2023-05-17T03:36:54.430Z,89.10
2023-05-17T03:39:23.708Z,89.40
2023-05-17T03:41:53.534Z,90.20
2023-05-17T03:44:22.765Z,88.90
2023-05-17T03:46:52.237Z,88.30
2023-05-17T03:49:21.979Z,89.50
2023-05-17T03:51:51.374Z,88.20
2023-05-17T03:54:20.599Z,88.90
2023-05-17T03:56:51.278Z,87.90
2023-05-17T03:59:20.523Z,88.00
2023-05-17T04:01:49.807Z,86.70
2023-05-17T04:04:19.049Z,87.50
2023-05-17T04:06:48.656Z,85.90
2023-05-17T04:09:18.151Z,86.20
2023-05-17T04:11:47.572Z,86.30
2023-05-17T04:14:19.132Z,85.10
2023-05-17T04:16:48.746Z,84.60
2023-05-17T04:19:18.594Z,84.40
2023-05-17T04:21:48.299Z,83.80
2023-05-17T04:24:18.160Z,84.80
2023-05-17T04:26:47.413Z,82.40
2023-05-17T04:29:16.656Z,82.00
2023-05-17T04:31:48.035Z,82.50
2023-05-17T04:34:18.427Z,82.50
2023-05-17T04:36:47.677Z,82.20
2023-05-17T04:39:17.077Z,81.20
2023-05-17T04:41:46.467Z,82.00
2023-05-17T04:44:15.811Z,81.80
2023-05-17T04:46:46.903Z,82.30
2023-05-17T04:49:16.281Z,82.40
2023-05-17T04:51:45.586Z,81.70
2023-05-17T04:54:14.972Z,82.50
2023-05-17T04:56:44.481Z,80.70
2023-05-17T04:59:13.758Z,80.50
2023-05-17T05:01:43.228Z,81.00
2023-05-17T05:04:12.826Z,80.40
2023-05-17T05:06:42.630Z,79.50
2023-05-17T05:09:12.032Z,80.10
2023-05-17T05:11:41.337Z,79.80
2023-05-17T05:14:10.718Z,80.00
2023-05-17T05:16:40.043Z,79.60
2023-05-17T05:19:11.251Z,79.50
2023-05-17T05:21:40.655Z,78.80
2023-05-17T05:24:10.298Z,79.50
2023-05-17T05:26:39.655Z,79.20
2023-05-17T05:29:08.922Z,80.20
2023-05-17T05:31:38.411Z,78.60
2023-05-17T05:34:08.539Z,79.10
2023-05-17T05:36:38.127Z,77.80
2023-05-17T05:39:09.167Z,77.90
2023-05-17T05:41:38.515Z,78.20
2023-05-17T05:44:07.990Z,77.70
2023-05-17T05:46:37.334Z,77.00
2023-05-17T05:49:06.672Z,75.90
2023-05-17T05:51:36.304Z,77.10
2023-05-17T05:54:05.702Z,76.70
2023-05-17T05:56:34.947Z,76.10
2023-05-17T05:59:04.671Z,76.20
2023-05-17T06:01:35.101Z,75.80
2023-05-17T06:04:04.448Z,76.10
2023-05-17T06:06:42.267Z,76.40
2023-05-17T06:09:13.321Z,75.70
2023-05-17T06:11:42.519Z,75.60
2023-05-17T06:14:12.226Z,74.20
2023-05-17T06:16:41.470Z,75.10
2023-05-17T06:19:12.703Z,75.00
2023-05-17T06:21:42.272Z,74.40
2023-05-17T06:24:11.680Z,75.10
2023-05-17T06:26:41.993Z,74.50
2023-05-17T06:29:11.852Z,73.40
2023-05-17T06:31:41.094Z,74.40
2023-05-17T06:34:10.654Z,74.20
2023-05-17T06:36:40.729Z,73.40
2023-05-17T06:39:10.098Z,74.10
2023-05-17T06:41:39.496Z,73.90
2023-05-17T06:44:09.861Z,74.00
2023-05-17T06:46:39.103Z,73.20
2023-05-17T06:49:08.471Z,72.70
2023-05-17T06:51:37.856Z,72.10
2023-05-17T06:54:07.114Z,71.90
2023-05-17T06:56:36.617Z,71.80
2023-05-17T06:59:05.898Z,71.30
2023-05-17T07:01:35.711Z,71.40
2023-05-17T07:04:05.026Z,72.80
2023-05-17T07:06:34.325Z,72.00
2023-05-17T07:09:03.631Z,71.30
2023-05-17T07:11:33.072Z,71.80
2023-05-17T07:14:02.379Z,71.90
2023-05-17T07:16:31.735Z,71.70
2023-05-17T07:19:00.999Z,71.60
2023-05-17T07:21:30.802Z,70.80
2023-05-17T07:24:00.483Z,71.90
2023-05-17T07:26:29.709Z,70.20
2023-05-17T07:28:59.098Z,70.80
2023-05-17T07:31:28.304Z,71.20
2023-05-17T07:33:58.410Z,71.30
2023-05-17T07:36:31.556Z,69.90
2023-05-17T07:39:00.993Z,70.40
2023-05-17T07:41:30.335Z,70.50
2023-05-17T07:43:59.739Z,70.20
2023-05-17T07:46:30.780Z,70.80
2023-05-17T07:49:00.206Z,70.40
2023-05-17T07:51:29.650Z,70.60
2023-05-17T07:53:58.997Z,70.80
2023-05-17T07:56:28.481Z,70.60
2023-05-17T07:58:58.790Z,70.80
2023-05-17T08:01:28.733Z,71.70
2023-05-17T08:03:58.221Z,71.40
2023-05-17T08:06:27.601Z,71.10
2023-05-17T08:08:57.029Z,71.20
2023-05-17T08:11:26.678Z,71.40
2023-05-17T08:13:56.006Z,69.40
2023-05-17T08:16:25.303Z,69.80
2023-05-17T08:18:54.940Z,70.30
2023-05-17T08:21:24.438Z,67.90
2023-05-17T08:23:54.262Z,68.50
2023-05-17T08:26:23.578Z,67.90
2023-05-17T08:28:52.877Z,68.80
2023-05-17T08:31:22.228Z,68.30
2023-05-17T08:33:52.921Z,68.50
2023-05-17T08:36:22.627Z,68.30
2023-05-17T08:38:53.441Z,68.20
2023-05-17T08:41:23.140Z,68.00
2023-05-17T08:43:53.104Z,69.50
2023-05-17T08:46:23.531Z,69.50
2023-05-17T08:49:00.743Z,70.10
2023-05-17T08:51:30.685Z,69.90
2023-05-17T08:54:00.932Z,69.80
2023-05-17T08:56:33.250Z,68.90
2023-05-17T08:59:04.113Z,69.00
2023-05-17T09:01:34.165Z,68.70
2023-05-17T09:04:04.116Z,68.30
2023-05-17T09:06:35.626Z,67.90
2023-05-17T09:09:08.412Z,69.00
2023-05-17T09:11:37.850Z,68.80
2023-05-17T09:14:09.412Z,69.40
2023-05-17T09:16:39.797Z,69.00
2023-05-17T09:19:10.647Z,70.00
2023-05-17T09:21:40.208Z,69.60
2023-05-17T09:24:09.921Z,69.50
2023-05-17T09:26:47.649Z,69.80
2023-05-17T09:29:18.478Z,70.30
2023-05-17T09:31:47.972Z,72.10
2023-05-17T09:34:24.646Z,70.70
2023-05-17T09:36:55.565Z,70.40
2023-05-17T09:39:28.002Z,70.10
2023-05-17T09:41:59.338Z,69.60
2023-05-17T09:44:28.819Z,69.50
2023-05-17T09:47:00.989Z,70.50
2023-05-17T09:49:30.254Z,69.80
2023-05-17T09:51:59.523Z,69.70
2023-05-17T09:54:42.351Z,69.30
2023-05-17T09:57:12.052Z,69.40
2023-05-17T09:59:42.191Z,69.60
2023-05-17T10:02:22.464Z,69.90
2023-05-17T10:04:54.835Z,70.30
2023-05-17T10:07:27.113Z,70.20
2023-05-17T10:09:58.448Z,70.20
2023-05-17T10:12:34.759Z,70.50
2023-05-17T10:15:05.973Z,70.40
2023-05-17T10:17:36.752Z,70.40
2023-05-17T10:20:09.670Z,71.00
2023-05-17T10:22:41.984Z,70.70
2023-05-17T10:25:12.201Z,71.20
2023-05-17T10:27:42.866Z,71.00
2023-05-17T10:30:15.554Z,70.60
2023-05-17T10:32:47.766Z,70.40
2023-05-17T10:35:17.713Z,70.70
2023-05-17T10:37:46.958Z,70.90
2023-05-17T10:40:18.544Z,70.90
2023-05-17T10:42:55.058Z,71.30
2023-05-17T10:45:29.295Z,70.80
2023-05-17T10:48:00.921Z,71.00
2023-05-17T10:50:31.157Z,70.80
2023-05-17T10:53:01.495Z,71.10
2023-05-17T10:55:44.108Z,71.40
2023-05-17T10:58:20.819Z,72.10
2023-05-17T11:00:55.754Z,72.00
2023-05-17T11:03:30.200Z,72.40
2023-05-17T11:06:25.669Z,72.70
2023-05-17T11:09:19.882Z,73.00
2023-05-17T11:12:29.096Z,72.70
2023-05-17T11:15:00.361Z,72.60
2023-05-17T11:17:38.144Z,72.60
2023-05-17T11:20:17.594Z,72.70
2023-05-17T11:22:57.180Z,73.50
2023-05-17T11:25:30.845Z,73.60
2023-05-17T11:28:01.257Z,73.80
2023-05-17T11:30:34.957Z,73.90
2023-05-17T11:33:17.343Z,73.70
2023-05-17T11:35:58.012Z,74.30
2023-05-17T11:38:33.869Z,75.30
2023-05-17T11:41:26.960Z,75.70
2023-05-17T11:43:57.014Z,75.70
2023-05-17T11:46:27.047Z,76.30
2023-05-17T11:48:57.309Z,76.30
2023-05-17T11:51:27.504Z,76.60
2023-05-17T11:53:57.639Z,77.50
2023-05-17T11:56:41.943Z,77.80
2023-05-17T11:59:12.591Z,78.10
2023-05-17T12:01:47.597Z,78.40
2023-05-17T12:04:26.700Z,78.80
2023-05-17T12:06:58.862Z,79.30
2023-05-17T12:09:28.666Z,79.70
2023-05-17T12:11:59.107Z,80.40
2023-05-17T12:14:28.717Z,81.00
2023-05-17T12:17:03.546Z,82.20
2023-05-17T12:19:33.947Z,81.80
2023-05-17T12:22:13.694Z,81.40
2023-05-17T12:24:44.999Z,81.70
2023-05-17T12:27:14.414Z,82.00
2023-05-17T12:29:45.105Z,82.20
2023-05-17T12:32:14.710Z,82.80
2023-05-17T12:34:45.345Z,84.10
2023-05-17T12:37:20.898Z,82.90
2023-05-17T12:39:56.285Z,83.00
2023-05-17T12:42:29.648Z,83.40
2023-05-17T12:45:04.296Z,83.10
2023-05-17T12:47:37.838Z,83.70
2023-05-17T12:50:26.714Z,83.80
2023-05-17T12:52:59.314Z,84.50
2023-05-17T12:55:39.395Z,85.10
2023-05-17T12:58:11.101Z,85.00
2023-05-17T13:00:45.070Z,86.50
2023-05-17T13:03:15.290Z,84.80
2023-05-17T13:05:48.097Z,84.80
2023-05-17T13:08:29.789Z,85.00
2023-05-17T13:11:22.837Z,85.20
2023-05-17T13:13:55.321Z,84.70
2023-05-17T13:16:32.190Z,84.40
2023-05-17T13:19:07.474Z,84.50
2023-05-17T13:21:42.849Z,84.50
2023-05-17T13:24:17.453Z,84.40
2023-05-17T13:26:51.656Z,84.30
2023-05-17T13:29:35.281Z,84.40
2023-05-17T13:32:18.670Z,84.40
2023-05-17T13:34:51.359Z,84.30
2023-05-17T13:37:27.049Z,84.40
2023-05-17T13:39:58.019Z,82.60
2023-05-17T13:42:29.972Z,81.20
2023-05-17T13:45:04.050Z,81.90
2023-05-17T13:47:39.508Z,81.70
2023-05-17T13:50:11.003Z,81.90
2023-05-17T13:52:40.382Z,82.10
2023-05-17T13:55:10.334Z,81.20
2023-05-17T13:57:39.678Z,81.10
2023-05-17T14:00:10.066Z,81.20
2023-05-17T14:02:39.549Z,81.10
2023-05-17T14:05:12.368Z,80.60
2023-05-17T14:07:43.746Z,81.00
2023-05-17T14:10:14.090Z,80.90
2023-05-17T14:12:43.526Z,81.20
2023-05-17T14:15:16.335Z,80.70
2023-05-17T14:17:45.797Z,80.90
2023-05-17T14:20:15.787Z,81.30
2023-05-17T14:22:48.193Z,81.20
2023-05-17T14:25:17.783Z,81.40
2023-05-17T14:27:47.893Z,81.40
2023-05-17T14:30:17.630Z,82.30
2023-05-17T14:32:50.163Z,82.20
2023-05-17T14:35:19.767Z,82.00
2023-05-17T14:37:49.201Z,82.10
2023-05-17T14:40:23.870Z,82.30
2023-05-17T14:42:53.231Z,82.50
2023-05-17T14:45:22.618Z,82.30
2023-05-17T14:47:52.355Z,83.10
2023-05-17T14:50:22.034Z,83.30
2023-05-17T14:52:51.681Z,84.30
2023-05-17T14:55:25.238Z,84.30
2023-05-17T14:57:55.832Z,84.10
2023-05-17T15:00:25.890Z,84.40
2023-05-17T15:02:55.386Z,84.20
2023-05-17T15:05:25.367Z,84.20
2023-05-17T15:07:55.152Z,84.60
2023-05-17T15:10:24.904Z,85.10
2023-05-17T15:12:54.269Z,84.30
2023-05-17T15:15:23.688Z,84.80
2023-05-17T15:17:53.735Z,84.50
2023-05-17T15:20:23.434Z,83.90
2023-05-17T15:22:53.175Z,84.80
2023-05-17T15:25:25.776Z,84.20
2023-05-17T15:27:57.992Z,85.00
2023-05-17T15:30:28.545Z,85.10
2023-05-17T15:33:00.622Z,85.40
2023-05-17T15:35:30.273Z,85.90
2023-05-17T15:38:03.000Z,86.50
2023-05-17T15:40:34.125Z,86.20
2023-05-17T15:43:03.582Z,86.10
2023-05-17T15:45:33.525Z,86.30
2023-05-17T15:48:03.131Z,86.50
2023-05-17T15:50:32.606Z,87.20
2023-05-17T15:53:04.493Z,86.70
2023-05-17T15:55:33.748Z,86.80
2023-05-17T15:58:02.990Z,86.80
2023-05-17T16:00:32.626Z,86.80
2023-05-17T16:03:02.268Z,87.10
2023-05-17T16:05:34.854Z,86.90
2023-05-17T16:08:04.170Z,87.20
2023-05-17T16:10:33.528Z,87.30
2023-05-17T16:13:02.975Z,87.40
2023-05-17T16:15:32.409Z,88.00
2023-05-17T16:18:02.022Z,87.50
2023-05-17T16:20:31.416Z,87.30
2023-05-17T16:23:00.686Z,87.20
2023-05-17T16:25:30.255Z,87.40
2023-05-17T16:27:59.757Z,87.70
2023-05-17T16:30:29.388Z,87.80
2023-05-17T16:32:59.665Z,88.00
2023-05-17T16:35:29.870Z,87.90
2023-05-17T16:37:59.499Z,87.90
2023-05-17T16:40:29.943Z,88.20
2023-05-17T16:42:59.481Z,87.90
2023-05-17T16:45:29.027Z,88.40
2023-05-17T16:47:58.503Z,88.60
2023-05-17T16:50:28.352Z,88.90
2023-05-17T16:52:57.821Z,88.50
2023-05-17T16:55:27.345Z,88.80
2023-05-17T16:57:56.770Z,88.80
2023-05-17T17:00:26.203Z,89.80
2023-05-17T17:02:55.690Z,89.20
2023-05-17T17:05:25.122Z,89.20
2023-05-17T17:07:54.535Z,89.30
2023-05-17T17:10:23.985Z,89.30
2023-05-17T17:12:53.425Z,89.50
2023-05-17T17:15:23.954Z,89.20
2023-05-17T17:17:53.417Z,89.40
2023-05-17T17:20:22.912Z,89.40
2023-05-17T17:22:52.232Z,89.50
2023-05-17T17:25:22.002Z,89.60
2023-05-17T17:27:53.112Z,89.50
2023-05-17T17:30:22.798Z,89.40
2023-05-17T17:32:52.372Z,89.60
2023-05-17T17:35:22.304Z,89.70
2023-05-17T17:37:51.656Z,89.50
2023-05-17T17:40:21.294Z,90.00
2023-05-17T17:42:50.663Z,89.40
2023-05-17T17:45:19.988Z,89.90
2023-05-17T17:47:49.266Z,89.60
2023-05-17T17:50:18.783Z,90.00
2023-05-17T17:52:48.028Z,89.90
2023-05-17T17:55:17.443Z,89.80
2023-05-17T17:57:46.794Z,90.00
2023-05-17T18:00:17.421Z,90.00
2023-05-17T18:02:46.814Z,90.10
2023-05-17T18:05:16.137Z,90.10
2023-05-17T18:07:45.477Z,90.20
2023-05-17T18:10:14.740Z,90.40
2023-05-17T18:12:44.015Z,90.30
2023-05-17T18:15:13.688Z,90.30
2023-05-17T18:17:43.557Z,90.40
2023-05-17T18:20:13.034Z,90.30
2023-05-17T18:22:42.250Z,90.50
2023-05-17T18:25:12.187Z,90.30
2023-05-17T18:27:42.478Z,90.50
2023-05-17T18:30:12.789Z,90.80
2023-05-17T18:32:42.773Z,90.80
2023-05-17T18:35:12.731Z,91.00
2023-05-17T18:37:41.997Z,91.00
2023-05-17T18:40:12.110Z,91.10
2023-05-17T18:42:41.375Z,91.00
2023-05-17T18:45:11.699Z,91.30
2023-05-17T18:47:41.017Z,91.30
2023-05-17T18:50:11.136Z,91.40
2023-05-17T18:52:40.876Z,91.30
2023-05-17T18:55:10.636Z,91.40
2023-05-17T18:57:39.948Z,91.30
2023-05-17T19:00:10.285Z,91.20
2023-05-17T19:02:39.629Z,91.50
2023-05-17T19:05:09.622Z,91.70
2023-05-17T19:07:39.004Z,91.60
2023-05-17T19:10:09.129Z,91.60
2023-05-17T19:12:38.489Z,91.70
2023-05-17T19:15:10.466Z,91.60
2023-05-17T19:17:39.928Z,91.80
2023-05-17T19:20:10.471Z,91.90
2023-05-17T19:22:39.818Z,91.90
2023-05-17T19:25:09.812Z,91.90
2023-05-17T19:27:39.079Z,92.10
2023-05-17T19:30:09.461Z,91.90
2023-05-17T19:32:39.561Z,92.10
2023-05-17T19:35:10.058Z,92.00
2023-05-17T19:37:39.593Z,92.30
2023-05-17T19:40:09.953Z,92.20
2023-05-17T19:42:40.676Z,92.00
2023-05-17T19:45:12.802Z,92.30
2023-05-17T19:47:43.381Z,92.20
2023-05-17T19:50:13.531Z,92.50
2023-05-17T19:52:42.867Z,92.40
2023-05-17T19:55:12.797Z,92.40
2023-05-17T19:57:42.166Z,92.50
2023-05-17T20:00:12.535Z,92.60
2023-05-17T20:02:42.076Z,92.70
2023-05-17T20:05:11.748Z,92.50
2023-05-17T20:07:41.052Z,92.60
2023-05-17T20:10:11.271Z,92.70
2023-05-17T20:12:41.032Z,93.00
2023-05-17T20:15:11.512Z,93.00
2023-05-17T20:17:40.957Z,93.00
2023-05-17T20:20:10.970Z,93.30
2023-05-17T20:22:42.064Z,93.40
2023-05-17T20:25:12.498Z,93.40
2023-05-17T20:27:42.044Z,93.20
2023-05-17T20:30:12.183Z,93.30
2023-05-17T20:32:41.805Z,93.10
2023-05-17T20:35:12.002Z,93.40
2023-05-17T20:37:41.460Z,93.10
2023-05-17T20:40:11.658Z,93.20
2023-05-17T20:42:41.378Z,93.20
2023-05-17T20:45:13.209Z,93.30
2023-05-17T20:47:43.915Z,93.40
2023-05-17T20:50:15.040Z,92.90
2023-05-17T20:52:44.368Z,93.20
2023-05-17T20:55:13.724Z,93.30
2023-05-17T20:57:42.998Z,93.30
2023-05-17T21:00:13.236Z,93.20
2023-05-17T21:02:42.740Z,93.40
2023-05-17T21:05:12.277Z,93.30
2023-05-17T21:07:41.654Z,93.60
2023-05-17T21:10:11.497Z,93.60
2023-05-17T21:12:40.877Z,93.60
2023-05-17T21:15:31.077Z,93.60
2023-05-17T21:18:00.235Z,93.40
2023-05-17T21:20:29.876Z,93.50
2023-05-17T21:22:59.258Z,93.50
2023-05-17T21:25:29.055Z,93.60
2023-05-17T21:27:58.885Z,93.70
2023-05-17T21:30:28.396Z,93.80
2023-05-17T21:32:58.371Z,93.80
2023-05-17T21:35:28.886Z,93.90
2023-05-17T21:38:01.213Z,93.70
2023-05-17T21:40:30.980Z,94.10
2023-05-17T21:43:07.845Z,94.10
2023-05-17T21:45:37.250Z,94.20
2023-05-17T21:48:06.978Z,94.20
2023-05-17T21:50:38.167Z,94.10
2023-05-17T21:53:07.431Z,94.00
2023-05-17T21:56:00.680Z,94.30
2023-05-17T21:58:33.161Z,94.40
2023-05-17T22:01:04.581Z,94.40
2023-05-17T22:03:34.102Z,94.50
2023-05-17T22:06:07.574Z,94.50
2023-05-17T22:08:38.102Z,94.60
2023-05-17T22:11:09.597Z,94.70
2023-05-17T22:13:39.564Z,94.60
2023-05-17T22:16:12.061Z,94.90
2023-05-17T22:18:41.458Z,95.00
2023-05-17T22:21:15.412Z,95.00
2023-05-17T22:23:47.959Z,95.10
2023-05-17T22:26:22.812Z,95.00
2023-05-17T22:28:58.554Z,95.20
2023-05-17T22:31:29.026Z,95.20
2023-05-17T22:34:00.751Z,95.30
2023-05-17T22:36:33.173Z,95.30
2023-05-17T22:39:03.813Z,95.60
2023-05-17T22:41:34.514Z,95.80
2023-05-17T22:44:07.777Z,95.60
2023-05-17T22:46:43.055Z,95.70
2023-05-17T22:49:14.282Z,95.80
2023-05-17T22:51:43.548Z,96.00
2023-05-17T22:54:12.737Z,95.90
2023-05-17T22:56:42.009Z,96.00
2023-05-17T22:59:11.632Z,95.90
2023-05-17T23:01:40.920Z,95.80
2023-05-17T23:04:10.283Z,95.90
2023-05-17T23:06:39.602Z,96.00
2023-05-17T23:09:08.812Z,96.00
2023-05-17T23:11:38.247Z,96.00
2023-05-17T23:14:07.994Z,95.90
2023-05-17T23:16:38.294Z,95.90
2023-05-17T23:19:07.472Z,96.00
2023-05-17T23:21:37.060Z,95.80
2023-05-17T23:24:07.617Z,95.90
2023-05-17T23:26:37.210Z,95.90
2023-05-17T23:29:06.417Z,95.80
2023-05-17T23:31:35.739Z,95.80
2023-05-17T23:34:05.059Z,95.80
2023-05-17T23:36:34.425Z,95.90
2023-05-17T23:39:03.902Z,95.80
2023-05-17T23:41:33.156Z,95.80
2023-05-17T23:44:02.556Z,95.80
2023-05-17T23:46:31.891Z,95.80
2023-05-17T23:49:05.889Z,95.70
2023-05-17T23:51:35.816Z,95.70
2023-05-17T23:54:05.252Z,95.80
2023-05-17T23:56:34.560Z,95.80
2023-05-17T23:59:03.868Z,95.60
